Time;durP1;ratioP1;P1;durP2;ratioP2;P2;SDS_P1;SDS_P2;PMS_P1;PMS_P2;Temp;Humidity;BMP_temperature;BMP_pressure;BME280_temperature;BME280_humidity;BME280_pressure;Samples;Min_cycle;Max_cycle;Signal;HPM_P1;HPM_P2
2022/05/22 00:01:04;;;;;;;1.77;1.33;;;;;;;11.69;98.54;96089.47;5010540;28;24432;-76
2022/05/22 00:03:31;;;;;;;1.98;1.20;;;;;;;11.74;91.44;96087.41;5010889;28;24950;-76
2022/05/22 00:05:57;;;;;;;1.80;0.80;;;;;;;11.67;90.25;96087.91;5010902;28;24443;-76
2022/05/22 00:08:24;;;;;;;2.10;1.08;;;;;;;11.54;91.51;96082.66;5011070;28;24527;-76
2022/05/22 00:10:51;;;;;;;1.88;1.20;;;;;;;11.51;92.42;96086.25;5011001;28;24421;-76
2022/05/22 00:13:18;;;;;;;2.67;1.30;;;;;;;11.50;92.03;96094.97;5010801;28;24941;-76
2022/05/22 00:18:25;;;;;;;2.85;1.27;;;;;;;11.57;94.05;96082.47;5010443;28;24469;-76
2022/05/22 00:20:51;;;;;;;1.90;1.23;;;;;;;11.67;90.48;96074.94;5010757;28;24428;-76
2022/05/22 00:23:18;;;;;;;2.28;1.27;;;;;;;11.59;91.20;96078.00;5010869;28;24431;-76
2022/05/22 00:25:44;;;;;;;3.20;1.25;;;;;;;11.41;94.07;96079.13;5010850;28;24424;-76
2022/05/22 00:28:12;;;;;;;1.60;1.15;;;;;;;11.41;95.29;96076.53;5010513;28;24807;-76
2022/05/22 00:30:38;;;;;;;1.35;1.10;;;;;;;11.44;94.36;96068.56;5010895;28;24428;-75
2022/05/22 00:33:06;;;;;;;1.87;1.10;;;;;;;11.36;95.06;96069.03;5010878;28;24506;-76
2022/05/22 00:35:33;;;;;;;4.63;1.35;;;;;;;11.47;94.02;96058.00;5010466;28;24960;-76
2022/05/22 00:37:59;;;;;;;2.15;1.27;;;;;;;11.40;94.86;96065.34;5010521;28;25005;-76
2022/05/22 00:40:26;;;;;;;2.13;1.30;;;;;;;11.35;97.21;96065.63;5010481;28;24512;-76
2022/05/22 00:42:52;;;;;;;2.67;1.27;;;;;;;11.39;97.14;96061.09;5010832;28;24424;-76
2022/05/22 00:45:20;;;;;;;1.77;1.10;;;;;;;11.42;95.34;96062.63;5010299;28;24837;-75
2022/05/22 00:47:46;;;;;;;3.97;1.70;;;;;;;11.29;100.00;96059.97;5010481;28;24436;-76
2022/05/22 00:50:13;;;;;;;1.60;1.00;;;;;;;11.37;97.40;96053.38;5010592;28;24437;-76
2022/05/22 00:52:43;;;;;;;6.55;1.30;;;;;;;11.36;93.55;96056.06;5010345;28;24444;-76
2022/05/22 00:55:14;;;;;;;3.70;1.13;;;;;;;11.27;95.49;96057.47;5010266;28;24937;-76
2022/05/22 00:57:45;;;;;;;1.80;1.13;;;;;;;11.19;97.39;96054.50;5010643;28;24913;-75
2022/05/22 01:00:16;;;;;;;1.08;0.85;;;;;;;11.38;91.82;96044.69;5010640;28;24432;-76
2022/05/22 01:05:29;;;;;;;3.40;1.15;;;;;;;11.07;94.56;96050.06;5010294;28;24515;-76
2022/05/22 01:07:57;;;;;;;2.28;1.20;;;;;;;11.01;95.44;96053.00;5010582;28;24440;-76
2022/05/22 01:10:29;;;;;;;2.17;1.17;;;;;;;11.05;93.60;96046.72;5010396;28;24814;-75
2022/05/22 01:12:56;;;;;;;3.45;1.33;;;;;;;10.97;95.99;96035.97;5012076;28;24448;-76
2022/05/22 01:15:23;;;;;;;2.00;1.02;;;;;;;10.87;97.52;96044.31;5014024;28;24443;-76
2022/05/22 01:17:51;;;;;;;2.50;1.17;;;;;;;10.87;96.46;96041.72;5014236;28;24421;-76
2022/05/22 01:20:17;;;;;;;2.08;1.40;;;;;;;10.81;97.52;96041.25;5014038;28;24424;-76
2022/05/22 01:22:45;;;;;;;1.73;1.13;;;;;;;10.79;97.89;96056.03;5014104;28;24440;-76
2022/05/22 01:25:12;;;;;;;2.15;1.23;;;;;;;10.82;97.83;96040.31;5013602;28;24424;-76
2022/05/22 01:27:40;;;;;;;1.42;1.13;;;;;;;10.80;96.93;96040.44;5013971;28;24490;-76
2022/05/22 01:30:12;;;;;;;2.00;1.20;;;;;;;10.75;97.26;96047.63;5013856;28;24428;-76
2022/05/22 01:32:41;;;;;;;2.20;1.30;;;;;;;10.77;95.92;96048.38;5013689;28;24448;-75
2022/05/22 01:35:09;;;;;;;2.92;1.13;;;;;;;10.72;95.65;96055.59;5013565;28;24495;-76
2022/05/22 01:37:36;;;;;;;2.08;1.08;;;;;;;10.69;94.73;96050.59;5013633;28;24421;-76
2022/05/22 01:40:05;;;;;;;1.50;1.00;;;;;;;10.80;92.86;96055.97;5013456;28;24439;-75
2022/05/22 01:42:31;;;;;;;3.00;1.10;;;;;;;10.72;94.83;96049.59;5013392;28;25004;-76
2022/05/22 01:44:58;;;;;;;4.32;1.42;;;;;;;10.61;97.08;96047.63;5013502;28;24436;-76
2022/05/22 01:47:24;;;;;;;1.92;1.30;;;;;;;10.40;100.00;96047.09;5013744;28;24432;-75
2022/05/22 01:49:51;;;;;;;1.70;1.30;;;;;;;10.33;99.69;96048.38;5013340;28;24423;-76
2022/05/22 01:52:17;;;;;;;1.80;1.27;;;;;;;10.33;100.00;96041.44;5013218;28;24435;-76
2022/05/22 01:54:44;;;;;;;2.47;1.60;;;;;;;10.30;100.00;96048.53;5013072;28;24423;-76
2022/05/22 01:57:12;;;;;;;3.30;1.30;;;;;;;10.34;100.00;96052.63;5013354;28;24424;-76
2022/05/22 01:59:38;;;;;;;2.30;1.40;;;;;;;10.43;100.00;96048.69;5013185;28;24424;-76
2022/05/22 02:02:04;;;;;;;1.67;1.50;;;;;;;10.50;100.00;96045.66;5013380;28;24431;-76
2022/05/22 02:04:32;;;;;;;3.35;1.30;;;;;;;10.53;98.63;96045.47;5012884;28;24524;-75
2022/05/22 02:09:43;;;;;;;1.20;1.00;;;;;;;10.43;98.78;96039.16;5012800;28;24431;-76
2022/05/22 02:12:10;;;;;;;3.25;1.38;;;;;;;10.38;100.00;96030.81;5012902;28;24424;-76
2022/05/22 02:14:37;;;;;;;5.18;1.20;;;;;;;10.46;98.46;96028.63;5012755;28;24440;-76
2022/05/22 02:17:04;;;;;;;2.53;1.30;;;;;;;10.53;97.06;96018.72;5012824;28;24427;-76
2022/05/22 02:19:31;;;;;;;3.87;1.47;;;;;;;10.43;97.52;96007.25;5013138;28;24849;-76
2022/05/22 02:21:57;;;;;;;2.55;1.42;;;;;;;10.17;100.00;96007.81;5012970;28;24423;-75
2022/05/22 02:24:24;;;;;;;2.40;1.30;;;;;;;10.13;100.00;96006.31;5011917;28;24432;-76
2022/05/22 02:26:50;;;;;;;1.65;1.10;;;;;;;10.22;100.00;96004.94;5012806;28;24471;-76
2022/05/22 02:29:17;;;;;;;2.80;1.20;;;;;;;10.33;100.00;96000.00;5012769;28;24499;-76
2022/05/22 02:31:45;;;;;;;2.70;1.27;;;;;;;10.44;99.31;95998.56;5012361;28;24482;-75
2022/05/22 02:34:11;;;;;;;1.87;1.33;;;;;;;10.24;100.00;95997.94;5012583;28;24580;-76
2022/05/22 02:36:38;;;;;;;1.95;1.45;;;;;;;10.19;100.00;95997.34;4993062;28;24425;-75
2022/05/22 02:39:04;;;;;;;2.22;1.30;;;;;;;10.18;100.00;95995.69;4993109;28;24421;-76
2022/05/22 02:41:31;;;;;;;2.90;1.30;;;;;;;10.17;100.00;96000.03;5003187;28;24460;-75
2022/05/22 02:43:57;;;;;;;1.20;1.00;;;;;;;10.23;100.00;95995.41;5012029;28;24993;-75
2022/05/22 02:46:24;;;;;;;2.30;1.20;;;;;;;10.26;100.00;95997.88;5012441;28;24421;-75
2022/05/22 02:48:53;;;;;;;1.80;1.20;;;;;;;10.33;100.00;95997.41;4992700;28;24929;-75
2022/05/22 02:51:21;;;;;;;1.92;1.20;;;;;;;10.35;98.89;95998.19;4992641;28;24444;-75
2022/05/22 02:53:48;;;;;;;1.65;1.40;;;;;;;10.21;99.98;95999.88;4992270;28;24835;-75
2022/05/22 02:56:19;;;;;;;1.47;1.23;;;;;;;10.07;100.00;95992.88;5006704;28;24495;-76
2022/05/22 02:58:46;;;;;;;1.80;1.10;;;;;;;10.10;100.00;95990.13;5012168;28;24447;-75
2022/05/22 03:01:12;;;;;;;2.65;1.13;;;;;;;10.15;100.00;95990.69;5012089;28;24448;-75
2022/05/22 03:03:38;;;;;;;1.20;1.00;;;;;;;10.10;100.00;95982.38;5011528;28;24473;-75
2022/05/22 03:08:51;;;;;;;1.48;1.02;;;;;;;10.18;100.00;95967.22;5011777;28;24403;-75
2022/05/22 03:11:17;;;;;;;1.30;1.00;;;;;;;10.19;100.00;95961.13;5012029;28;24473;-75
2022/05/22 03:13:44;;;;;;;1.70;1.10;;;;;;;10.25;100.00;95975.47;5011405;28;24997;-75
2022/05/22 03:16:10;;;;;;;3.50;1.20;;;;;;;10.29;100.00;95964.03;5011552;28;24973;-75
2022/05/22 03:18:37;;;;;;;2.25;1.20;;;;;;;10.35;100.00;95969.69;5011879;28;24798;-75
2022/05/22 03:21:03;;;;;;;4.55;1.60;;;;;;;10.38;100.00;95966.06;5011771;28;24432;-76
2022/05/22 03:23:31;;;;;;;2.67;1.10;;;;;;;10.45;100.00;95963.97;5011235;28;24435;-75
2022/05/22 03:25:58;;;;;;;5.73;1.27;;;;;;;10.45;100.00;95964.78;5011381;28;24436;-75
2022/05/22 03:28:24;;;;;;;2.03;1.20;;;;;;;10.50;100.00;95967.13;5011423;28;24428;-75
2022/05/22 03:30:51;;;;;;;2.17;1.20;;;;;;;10.51;100.00;95955.84;5011180;28;24528;-75
2022/05/22 03:33:17;;;;;;;2.42;1.05;;;;;;;10.47;100.00;95964.72;5010804;28;24444;-76
2022/05/22 03:35:44;;;;;;;2.42;1.35;;;;;;;10.44;100.00;95957.13;5011472;28;24439;-75
2022/05/22 03:38:10;;;;;;;1.70;1.00;;;;;;;10.44;100.00;95964.91;4997145;28;24420;-76
2022/05/22 03:40:45;;;;;;;2.20;1.30;;;;;;;10.37;100.00;95972.19;5010491;28;24842;-75
2022/05/22 03:43:11;;;;;;;2.00;1.30;;;;;;;10.29;99.83;95969.22;5011294;28;24535;-75
2022/05/22 03:45:37;;;;;;;2.00;1.10;;;;;;;10.14;98.83;95961.38;5011211;28;24850;-75
2022/05/22 03:48:04;;;;;;;1.60;1.10;;;;;;;10.07;96.98;95949.72;5011450;28;24470;-75
2022/05/22 03:50:31;;;;;;;3.55;1.10;;;;;;;10.01;95.36;95954.41;5011144;28;24556;-75
2022/05/22 03:52:57;;;;;;;1.45;0.90;;;;;;;9.93;97.72;95954.84;5011219;28;24432;-75
2022/05/22 03:55:24;;;;;;;1.50;1.00;;;;;;;9.94;98.29;95947.03;5011003;28;24455;-75
2022/05/22 03:57:52;;;;;;;1.23;0.90;;;;;;;9.98;96.55;95946.84;5011310;28;24431;-76
2022/05/22 04:00:20;;;;;;;1.02;0.90;;;;;;;10.05;94.34;95943.81;5011150;28;24502;-75
2022/05/22 04:02:47;;;;;;;2.38;0.95;;;;;;;9.81;99.07;95948.63;5011126;28;24444;-75
2022/05/22 04:05:13;;;;;;;1.42;1.20;;;;;;;9.80;100.00;95940.97;5010798;28;24428;-75
2022/05/22 04:07:41;;;;;;;1.80;1.30;;;;;;;9.85;98.83;95931.19;5011113;28;24837;-75
2022/05/22 04:10:09;;;;;;;1.90;1.45;;;;;;;9.90;96.10;95945.53;5010820;28;24460;-75
2022/05/22 04:12:37;;;;;;;2.38;1.30;;;;;;;9.67;99.71;95952.00;5011177;28;24428;-75
2022/05/22 04:15:07;;;;;;;1.50;1.10;;;;;;;9.61;100.00;95944.59;5010770;28;24546;-75
2022/05/22 04:17:34;;;;;;;3.33;1.13;;;;;;;9.67;100.00;95930.47;4991650;28;20796;-75
2022/05/22 04:20:00;;;;;;;2.22;1.20;;;;;;;9.72;100.00;95931.06;5006188;28;24444;-75
2022/05/22 04:22:27;;;;;;;1.30;0.95;;;;;;;9.73;100.00;95935.31;5010899;28;20762;-76
2022/05/22 04:25:11;;;;;;;1.23;0.90;;;;;;;9.79;100.00;95928.94;5010533;28;24435;-75
2022/05/22 04:27:38;;;;;;;2.63;1.30;;;;;;;9.95;100.00;95932.34;5010998;28;24429;-75
2022/05/22 04:30:07;;;;;;;3.17;1.42;;;;;;;10.06;100.00;95916.19;5010833;28;24471;-75
2022/05/22 04:32:34;;;;;;;1.92;1.33;;;;;;;10.14;100.00;95911.38;5010609;28;24424;-76
2022/05/22 04:35:00;;;;;;;1.60;1.00;;;;;;;10.14;100.00;95909.63;5010389;28;24440;-75
2022/05/22 04:37:26;;;;;;;2.40;1.35;;;;;;;10.11;100.00;95914.97;5010899;28;24471;-75
2022/05/22 04:39:53;;;;;;;1.30;1.10;;;;;;;10.23;100.00;95903.06;5010620;28;24510;-74
2022/05/22 04:42:19;;;;;;;1.88;1.00;;;;;;;10.25;100.00;95905.59;5010533;28;24423;-76
2022/05/22 04:44:46;;;;;;;2.10;1.20;;;;;;;10.31;100.00;95900.91;4990632;28;24973;-75
2022/05/22 04:47:13;;;;;;;2.15;1.17;;;;;;;10.40;100.00;95902.09;4991428;28;24417;-75
2022/05/22 04:49:40;;;;;;;1.75;1.27;;;;;;;10.55;100.00;95906.38;4994748;28;24479;-75
2022/05/22 04:52:07;;;;;;;1.65;1.23;;;;;;;10.81;100.00;95888.41;4994971;28;24428;-75
2022/05/22 04:54:33;;;;;;;1.30;1.20;;;;;;;10.80;100.00;95891.94;5007306;28;24514;-76
2022/05/22 04:57:01;;;;;;;2.28;1.20;;;;;;;10.87;100.00;95901.81;5014545;28;24853;-76
2022/05/22 04:59:28;;;;;;;1.52;1.23;;;;;;;11.02;100.00;95897.44;5014334;28;24425;-75
2022/05/22 05:01:54;;;;;;;2.28;1.10;;;;;;;11.34;100.00;95897.97;5014258;28;24420;-75
2022/05/22 05:04:22;;;;;;;4.65;1.30;;;;;;;11.27;100.00;95908.84;5014219;28;24424;-75
2022/05/22 05:06:51;;;;;;;1.67;1.27;;;;;;;11.11;100.00;95906.38;5014235;28;24444;-75
2022/05/22 05:09:18;;;;;;;1.83;1.30;;;;;;;10.95;100.00;95905.69;5014314;28;24432;-75
2022/05/22 05:11:45;;;;;;;3.28;1.00;;;;;;;11.37;100.00;95900.38;5014278;28;24539;-75
2022/05/22 05:14:11;;;;;;;3.20;1.23;;;;;;;11.53;100.00;95897.66;5013912;28;24467;-75
2022/05/22 05:16:38;;;;;;;3.72;1.70;;;;;;;11.65;100.00;95887.41;5013538;28;24798;-75
2022/05/22 05:19:04;;;;;;;2.10;1.40;;;;;;;11.73;100.00;95885.97;5013898;28;24409;-75
2022/05/22 05:21:32;;;;;;;1.70;1.30;;;;;;;11.72;100.00;95892.09;5013889;28;24530;-76
2022/05/22 05:23:58;;;;;;;1.73;1.35;;;;;;;11.81;100.00;95890.66;5013014;28;24539;-77
2022/05/22 05:26:25;;;;;;;2.85;1.55;;;;;;;11.72;100.00;95892.09;5013854;28;24440;-75
2022/05/22 05:28:51;;;;;;;2.50;1.50;;;;;;;11.72;100.00;95891.28;5013682;28;24420;-75
2022/05/22 05:31:18;;;;;;;1.48;1.25;;;;;;;11.94;100.00;95901.09;5013643;28;24448;-74
2022/05/22 05:33:44;;;;;;;7.68;1.40;;;;;;;12.18;100.00;95896.03;5013326;28;24818;-75
2022/05/22 05:36:11;;;;;;;4.95;1.60;;;;;;;12.05;97.38;95894.28;5013486;28;24498;-75
2022/05/22 05:38:39;;;;;;;1.88;1.40;;;;;;;11.94;98.46;95896.75;5013897;28;24504;-75
2022/05/22 05:41:06;;;;;;;1.90;1.27;;;;;;;11.78;98.93;95902.06;5013376;28;24432;-75
2022/05/22 05:43:32;;;;;;;2.67;1.50;;;;;;;11.70;100.00;95893.94;5013477;28;24491;-74
2022/05/22 05:45:58;;;;;;;2.53;1.40;;;;;;;11.77;100.00;95892.63;5013246;28;24459;-74
2022/05/22 05:48:25;;;;;;;1.90;1.27;;;;;;;11.95;100.00;95885.44;5013223;28;24443;-75
2022/05/22 05:50:51;;;;;;;1.50;1.25;;;;;;;12.33;100.00;95888.03;5013115;28;24980;-75
2022/05/22 05:53:18;;;;;;;4.43;1.57;;;;;;;12.65;96.94;95886.78;5013195;28;24539;-75
2022/05/22 05:55:47;;;;;;;16.77;1.73;;;;;;;12.65;95.03;95887.63;5012949;28;24969;-75
2022/05/22 05:58:13;;;;;;;2.30;1.30;;;;;;;12.77;95.39;95884.16;5013334;28;24424;-76
2022/05/22 06:00:40;;;;;;;2.13;1.20;;;;;;;13.10;93.57;95881.91;5011721;28;24976;-75
2022/05/22 06:03:08;;;;;;;3.33;1.38;;;;;;;13.02;93.31;95874.66;5012753;28;24902;-74
2022/05/22 06:05:34;;;;;;;2.70;1.60;;;;;;;13.15;91.82;95879.78;5012573;28;24595;-75
2022/05/22 06:08:00;;;;;;;9.30;1.75;;;;;;;13.05;92.89;95874.41;5012870;28;24440;-75
2022/05/22 06:10:27;;;;;;;1.92;1.40;;;;;;;12.99;94.10;95874.84;5012090;28;24463;-75
2022/05/22 06:12:54;;;;;;;1.90;1.20;;;;;;;13.18;95.36;95876.97;5012714;28;24440;-75
2022/05/22 06:15:21;;;;;;;2.63;1.70;;;;;;;13.44;92.28;95872.53;5012150;28;24452;-75
2022/05/22 06:17:47;;;;;;;3.03;1.60;;;;;;;13.62;90.37;95870.38;5010432;28;24506;-75
2022/05/22 06:20:16;;;;;;;3.00;1.55;;;;;;;13.37;91.55;95871.31;5012199;28;24443;-76
2022/05/22 06:22:44;;;;;;;3.13;1.73;;;;;;;13.49;90.93;95876.44;5012570;28;24502;-75
2022/05/22 06:25:14;;;;;;;3.90;1.55;;;;;;;13.49;91.30;95867.81;5008621;28;24471;-75
2022/05/22 06:27:41;;;;;;;1.70;1.35;;;;;;;13.91;91.06;95863.84;5006478;28;24871;-75
2022/05/22 06:30:12;;;;;;;2.25;1.45;;;;;;;14.43;88.30;95870.31;5011885;28;24463;-75
2022/05/22 06:32:39;;;;;;;2.72;1.50;;;;;;;14.71;85.60;95863.81;5012459;28;24445;-76
2022/05/22 06:35:07;;;;;;;2.10;1.40;;;;;;;15.09;83.97;95878.28;5011715;28;24544;-75
2022/05/22 06:37:34;;;;;;;2.90;1.70;;;;;;;15.43;84.43;95875.59;5012226;28;24439;-78
2022/05/22 06:39:59;;;;;;;1.80;1.30;;;;;;;15.71;84.26;95868.97;5012090;28;24456;-74
2022/05/22 06:42:29;;;;;;;2.07;1.40;;;;;;;16.14;78.00;95861.03;5012323;28;24440;-74
2022/05/22 06:44:58;;;;;;;3.67;1.40;;;;;;;16.50;76.04;95873.75;4996529;28;25035;-75
2022/05/22 06:47:28;;;;;;;3.00;1.42;;;;;;;16.50;77.69;95868.50;5012081;28;24439;-74
2022/05/22 06:49:55;;;;;;;2.47;1.30;;;;;;;16.54;74.52;95873.38;5011994;28;24440;-74
2022/05/22 06:52:22;;;;;;;2.10;1.30;;;;;;;16.67;73.07;95878.38;5011577;28;25005;-73
2022/05/22 06:54:49;;;;;;;2.28;1.50;;;;;;;16.50;73.33;95882.44;5007083;28;25126;-76
2022/05/22 06:57:17;;;;;;;2.50;1.40;;;;;;;16.73;76.75;95872.63;5009188;28;24445;-75
2022/05/22 06:59:45;;;;;;;2.80;1.60;;;;;;;17.04;74.67;95876.06;5007485;28;24528;-74
2022/05/22 07:02:11;;;;;;;5.90;1.50;;;;;;;17.24;71.35;95879.53;5011383;28;24981;-75
2022/05/22 07:04:39;;;;;;;4.90;1.60;;;;;;;17.40;74.23;95879.88;5011270;28;24480;-75
2022/05/22 07:07:06;;;;;;;1.95;1.25;;;;;;;17.36;68.51;95869.81;5011654;28;24433;-75
2022/05/22 07:09:33;;;;;;;3.15;1.48;;;;;;;17.15;69.34;95875.94;5008826;28;24444;-75
2022/05/22 07:11:59;;;;;;;3.22;1.52;;;;;;;16.99;70.88;95878.25;5009619;28;24490;-74
2022/05/22 07:14:28;;;;;;;2.92;1.50;;;;;;;17.37;73.89;95866.22;5011189;28;24456;-75
2022/05/22 07:16:54;;;;;;;2.78;1.40;;;;;;;17.77;71.32;95866.16;5011532;28;24440;-73
2022/05/22 07:19:21;;;;;;;143.80;62.60;;;;;;;17.98;68.15;95859.91;5011303;28;24440;-74
2022/05/22 07:21:49;;;;;;;76.35;42.47;;;;;;;18.13;66.07;95863.75;5010842;28;24428;-75
2022/05/22 07:24:15;;;;;;;4.05;2.70;;;;;;;18.23;66.27;95861.94;5010931;28;24447;-75
2022/05/22 07:26:42;;;;;;;5.38;1.40;;;;;;;18.43;68.91;95849.63;5011240;28;24494;-76
2022/05/22 07:29:08;;;;;;;2.72;1.27;;;;;;;18.61;64.36;95850.53;5011511;28;24443;-75
2022/05/22 07:31:35;;;;;;;1.60;1.00;;;;;;;18.72;62.36;95846.09;5010876;28;25008;-75
2022/05/22 07:34:02;;;;;;;4.80;1.25;;;;;;;18.47;61.05;95845.75;5010650;28;25015;-75
2022/05/22 07:36:28;;;;;;;3.75;1.20;;;;;;;18.38;58.92;95851.84;5010101;28;24441;-75
2022/05/22 07:38:56;;;;;;;1.70;0.95;;;;;;;18.49;58.97;95842.97;5010636;28;24977;-75
2022/05/22 07:41:22;;;;;;;5.60;1.10;;;;;;;18.33;59.20;95848.84;5010604;28;24437;-75
2022/05/22 07:43:49;;;;;;;1.70;0.80;;;;;;;18.60;58.89;95848.88;5010835;28;24556;-78
2022/05/22 07:46:16;;;;;;;2.28;1.15;;;;;;;18.26;59.18;95845.13;5009888;28;24494;-70
2022/05/22 07:48:43;;;;;;;1.52;0.90;;;;;;;18.68;59.34;95845.53;5010641;28;24428;-75
2022/05/22 07:51:11;;;;;;;1.88;0.98;;;;;;;18.75;56.83;95848.44;5010374;28;24443;-74
2022/05/22 07:53:37;;;;;;;2.47;1.17;;;;;;;19.01;55.05;95846.78;5006806;28;24803;-75
2022/05/22 07:56:05;;;;;;;1.30;0.93;;;;;;;19.26;55.58;95841.81;5010615;28;24471;-75
2022/05/22 07:58:33;;;;;;;3.25;0.98;;;;;;;19.71;54.73;95836.53;5008935;28;24985;-75
2022/05/22 08:00:59;;;;;;;2.47;1.13;;;;;;;20.33;54.45;95830.44;5010706;28;24448;-75
2022/05/22 08:03:26;;;;;;;2.15;1.02;;;;;;;20.49;51.43;95826.13;5009409;28;24527;-75
2022/05/22 08:05:54;;;;;;;1.45;1.00;;;;;;;20.66;51.14;95823.59;5006937;28;24867;-75
2022/05/22 08:08:20;;;;;;;1.60;0.90;;;;;;;19.84;52.22;95815.16;5008356;28;24447;-75
2022/05/22 08:10:47;;;;;;;3.25;1.20;;;;;;;19.98;51.66;95805.88;5002992;28;24444;-75
2022/05/22 08:13:15;;;;;;;1.48;0.93;;;;;;;19.62;52.84;95815.59;5003709;28;24436;-75
2022/05/22 08:15:43;;;;;;;1.50;0.80;;;;;;;20.15;53.35;95804.19;5002980;28;24452;-75
2022/05/22 08:18:10;;;;;;;2.17;0.98;;;;;;;20.52;51.42;95809.19;5010296;28;24447;-75
2022/05/22 08:20:39;;;;;;;3.45;1.10;;;;;;;20.79;52.18;95800.28;5011656;28;24449;-75
2022/05/22 08:23:07;;;;;;;1.30;0.80;;;;;;;20.99;51.00;95806.13;5010096;28;25222;-73
2022/05/22 08:25:34;;;;;;;1.92;1.00;;;;;;;21.62;56.01;95796.88;5009931;28;24440;-75
2022/05/22 08:28:00;;;;;;;2.75;1.02;;;;;;;21.81;51.26;95801.84;5010509;28;25008;-75
2022/05/22 08:30:30;;;;;;;4.20;1.30;;;;;;;21.42;48.59;95796.34;5009941;28;24440;-75
2022/05/22 08:32:57;;;;;;;2.92;1.10;;;;;;;20.93;48.83;95796.22;5010207;28;24547;-75
2022/05/22 08:35:25;;;;;;;2.25;0.80;;;;;;;21.44;50.08;95791.75;5003804;28;25017;-75
2022/05/22 08:37:52;;;;;;;1.98;0.95;;;;;;;21.24;47.20;95788.56;5007135;28;24467;-75
2022/05/22 08:40:22;;;;;;;1.25;0.77;;;;;;;21.86;50.78;95794.25;4996252;28;24451;-75
2022/05/22 08:42:51;;;;;;;2.15;1.15;;;;;;;22.18;47.82;95782.06;5008113;28;24433;-75
2022/05/22 08:45:21;;;;;;;1.90;1.00;;;;;;;22.38;48.97;95779.84;5008987;28;24439;-75
2022/05/22 08:47:58;;;;;;;1.27;0.80;;;;;;;22.43;45.25;95770.44;5008125;28;24444;-75
2022/05/22 08:50:25;;;;;;;3.10;1.20;;;;;;;21.78;45.60;95775.78;5009858;28;24523;-75
2022/05/22 08:52:56;;;;;;;1.35;0.82;;;;;;;21.89;47.11;95779.91;5009732;28;24902;-75
2022/05/22 08:55:26;;;;;;;3.22;0.80;;;;;;;22.33;45.26;95779.56;5009107;28;24591;-78
2022/05/22 09:00:42;;;;;;;1.20;0.90;;;;;;;21.32;46.41;95778.06;4989093;28;24970;-75
2022/05/22 09:03:17;;;;;;;3.63;0.95;;;;;;;21.87;45.86;95766.06;5010160;28;24440;-75
2022/05/22 09:05:45;;;;;;;3.70;1.20;;;;;;;22.65;46.23;95760.94;5009732;28;24436;-75
2022/05/22 09:08:20;;;;;;;3.28;1.10;;;;;;;23.14;45.41;95758.13;5009902;28;24440;-75
2022/05/22 09:10:56;;;;;;;2.40;1.08;;;;;;;23.23;45.25;95756.25;5009988;28;24436;-75
2022/05/22 09:13:31;;;;;;;1.13;0.77;;;;;;;23.23;44.43;95755.41;5009969;28;24527;-75
2022/05/22 09:16:06;;;;;;;1.17;0.77;;;;;;;23.42;47.50;95761.06;5009522;28;24985;-75
2022/05/22 09:18:36;;;;;;;5.80;1.00;;;;;;;23.40;46.62;95749.84;5008258;28;24436;-75
2022/05/22 09:21:17;;;;;;;1.65;0.85;;;;;;;23.82;45.54;95745.09;5008424;28;24990;-75
2022/05/22 09:23:58;;;;;;;1.83;0.90;;;;;;;23.69;44.55;95747.50;5006609;28;24433;-76
2022/05/22 09:26:45;;;;;;;2.58;1.05;;;;;;;23.62;47.51;95740.28;5007864;28;24439;-75
2022/05/22 09:29:30;;;;;;;2.13;0.73;;;;;;;23.64;45.88;95742.72;5009283;28;24510;-75
2022/05/22 09:32:05;;;;;;;2.40;1.13;;;;;;;23.34;47.60;95752.38;5007843;28;25020;-75
2022/05/22 09:34:43;;;;;;;3.03;1.33;;;;;;;23.31;47.59;95740.31;5011916;28;25032;-75
2022/05/22 09:37:22;;;;;;;1.40;0.73;;;;;;;23.23;44.96;95743.03;5013335;28;24436;-75
2022/05/22 09:40:03;;;;;;;1.58;0.90;;;;;;;23.33;41.92;95740.97;5012261;28;24768;-75
2022/05/22 09:42:47;;;;;;;1.00;0.82;;;;;;;23.64;43.36;95732.16;5011331;28;25018;-75
2022/05/22 09:45:36;;;;;;;2.55;0.82;;;;;;;23.82;46.21;95735.34;5012806;28;24432;-74
2022/05/22 09:48:30;;;;;;;2.47;0.82;;;;;;;23.78;42.28;95727.94;4993848;28;24448;-75
2022/05/22 09:51:06;;;;;;;2.03;0.93;;;;;;;23.91;40.63;95725.47;5006561;28;24440;-76
2022/05/22 09:53:48;;;;;;;2.30;0.80;;;;;;;24.09;43.56;95723.31;5012870;28;24444;-75
2022/05/22 09:56:22;;;;;;;3.47;1.20;;;;;;;23.89;46.74;95724.84;5006353;28;24452;-75
2022/05/22 09:59:02;;;;;;;4.20;1.00;;;;;;;24.10;44.12;95721.50;5012239;28;24436;-75
2022/05/22 10:01:34;;;;;;;1.58;0.90;;;;;;;24.14;44.44;95723.63;5010526;28;24444;-75
2022/05/22 10:04:14;;;;;;;2.55;1.30;;;;;;;24.06;44.01;95713.09;5012625;28;25016;-75
2022/05/22 10:06:49;;;;;;;2.60;0.90;;;;;;;23.73;44.51;95712.63;5012934;28;24440;-75
2022/05/22 10:09:24;;;;;;;1.30;1.00;;;;;;;23.25;42.77;95709.34;5012655;28;24493;-75
2022/05/22 10:12:03;;;;;;;2.25;1.20;;;;;;;23.21;46.36;95708.03;5012658;28;24986;-75
2022/05/22 10:14:42;;;;;;;1.70;0.88;;;;;;;23.02;47.23;95706.66;5011958;28;24447;-75
2022/05/22 10:17:24;;;;;;;2.08;0.90;;;;;;;22.87;49.85;95711.84;5011859;28;24456;-75
2022/05/22 10:19:58;;;;;;;5.25;1.17;;;;;;;22.86;48.34;95717.31;5011205;28;25033;-75
2022/05/22 10:22:38;;;;;;;2.70;1.10;;;;;;;22.81;47.50;95707.28;5011649;28;24520;-75
2022/05/22 10:25:32;;;;;;;3.58;1.10;;;;;;;23.01;47.48;95704.22;5006557;28;24444;-75
2022/05/22 10:28:03;;;;;;;1.53;0.77;;;;;;;23.19;48.44;95694.19;5006702;28;24443;-75
2022/05/22 10:30:35;;;;;;;3.13;1.20;;;;;;;23.49;48.80;95694.28;5012764;28;24436;-75
2022/05/22 10:33:06;;;;;;;2.63;1.10;;;;;;;23.33;45.73;95704.00;5012256;28;24803;-75
2022/05/22 10:35:39;;;;;;;2.47;1.10;;;;;;;23.02;46.09;95698.75;5011706;28;25051;-75
2022/05/22 10:38:11;;;;;;;1.10;0.83;;;;;;;23.02;45.11;95695.28;5012347;28;24436;-75
2022/05/22 10:43:31;;;;;;;2.20;1.08;;;;;;;23.43;47.88;95693.16;5012253;28;24416;-75
2022/05/22 10:45:57;;;;;;;3.53;0.93;;;;;;;23.61;47.66;95687.56;5011165;28;24474;-75
2022/05/22 10:48:24;;;;;;;3.63;1.00;;;;;;;23.83;44.97;95689.34;5006221;28;24473;-75
2022/05/22 10:50:54;;;;;;;2.30;1.00;;;;;;;23.67;43.33;95674.47;5011045;28;25024;-75
2022/05/22 10:53:31;;;;;;;1.37;0.77;;;;;;;23.78;42.18;95682.97;5012023;28;24846;-75
2022/05/22 10:56:01;;;;;;;2.70;1.02;;;;;;;23.75;43.74;95670.94;5011778;28;24451;-75
2022/05/22 10:58:30;;;;;;;2.20;1.02;;;;;;;24.17;43.91;95666.84;5011851;28;24516;-75
2022/05/22 11:00:59;;;;;;;3.42;1.27;;;;;;;24.41;45.99;95668.44;5011437;28;25025;-75
2022/05/22 11:03:29;;;;;;;1.58;0.90;;;;;;;24.41;46.08;95664.97;5011144;28;24774;-74
2022/05/22 11:05:57;;;;;;;3.20;2.30;;;;;;;24.12;47.33;95661.28;5011834;28;24433;-75
2022/05/22 11:08:29;;;;;;;2.43;1.00;;;;;;;24.28;46.28;95661.09;5011717;28;24439;-75
2022/05/22 11:10:57;;;;;;;3.23;1.23;;;;;;;24.33;49.13;95655.25;5006933;28;24486;-75
2022/05/22 11:13:26;;;;;;;3.53;1.25;;;;;;;24.42;49.59;95648.06;5008512;28;24503;-75
2022/05/22 11:15:53;;;;;;;2.67;1.17;;;;;;;24.05;45.86;95655.91;5012058;28;24550;-75
2022/05/22 11:18:23;;;;;;;2.30;1.10;;;;;;;24.18;48.10;95654.44;5011812;28;24555;-75
2022/05/22 11:20:55;;;;;;;2.90;1.10;;;;;;;24.13;46.08;95657.63;5011312;28;24875;-75
2022/05/22 11:23:38;;;;;;;1.88;1.08;;;;;;;24.15;49.87;95651.16;5011531;28;24440;-75
2022/05/22 11:26:17;;;;;;;4.32;1.20;;;;;;;23.79;47.19;95651.06;5011388;28;24439;-74
2022/05/22 11:28:57;;;;;;;3.88;1.15;;;;;;;23.89;45.85;95642.88;5011423;28;24838;-74
2022/05/22 11:31:39;;;;;;;2.70;1.20;;;;;;;23.15;44.45;95645.34;5011268;28;24443;-74
2022/05/22 11:34:23;;;;;;;2.25;1.15;;;;;;;22.67;45.23;95640.19;5011184;28;24499;-74
2022/05/22 11:37:01;;;;;;;3.95;1.13;;;;;;;23.32;45.98;95635.44;5011195;28;24452;-74
2022/05/22 11:39:44;;;;;;;2.08;1.02;;;;;;;23.72;48.96;95644.03;5011216;28;24436;-74
2022/05/22 11:42:21;;;;;;;3.40;1.25;;;;;;;23.70;48.22;95644.22;5011244;28;24436;-74
2022/05/22 11:45:10;;;;;;;2.00;0.90;;;;;;;23.95;49.59;95634.19;5007498;28;24802;-74
2022/05/22 11:47:48;;;;;;;3.88;1.10;;;;;;;23.81;51.02;95638.50;5011265;28;24520;-74
2022/05/22 11:50:25;;;;;;;1.80;1.02;;;;;;;23.78;48.44;95635.38;5011158;28;24447;-73
2022/05/22 11:53:03;;;;;;;3.65;1.20;;;;;;;23.79;54.39;95637.03;5011036;28;24436;-74
2022/05/22 11:55:49;;;;;;;2.80;1.20;;;;;;;23.63;47.92;95632.69;5010880;28;24439;-74
2022/05/22 11:58:21;;;;;;;2.75;1.10;;;;;;;23.53;45.20;95626.84;5002360;28;24456;-74